sensor_id;sensor_type;location;lat;lon;timestamp;P1;durP1;ratioP1;P2;durP2;ratioP2
3465;SDS011;1747;48.884;9.160;2023-07-31T00:01:56;2.10;;;1.38;;
3465;SDS011;1747;48.884;9.160;2023-07-31T00:04:23;3.92;;;1.38;;
3465;SDS011;1747;48.884;9.160;2023-07-31T00:06:50;2.85;;;1.20;;
3465;SDS011;1747;48.884;9.160;2023-07-31T00:09:16;3.25;;;1.33;;
3465;SDS011;1747;48.884;9.160;2023-07-31T00:11:45;3.08;;;1.52;;
3465;SDS011;1747;48.884;9.160;2023-07-31T00:14:12;2.72;;;1.45;;
3465;SDS011;1747;48.884;9.160;2023-07-31T00:16:38;2.30;;;1.20;;
3465;SDS011;1747;48.884;9.160;2023-07-31T00:19:05;3.92;;;1.40;;
3465;SDS011;1747;48.884;9.160;2023-07-31T00:21:32;5.30;;;1.48;;
3465;SDS011;1747;48.884;9.160;2023-07-31T00:23:59;4.32;;;1.88;;
3465;SDS011;1747;48.884;9.160;2023-07-31T00:26:26;5.60;;;1.85;;
3465;SDS011;1747;48.884;9.160;2023-07-31T00:28:54;2.63;;;1.40;;
3465;SDS011;1747;48.884;9.160;2023-07-31T00:31:21;3.92;;;1.35;;
3465;SDS011;1747;48.884;9.160;2023-07-31T00:33:48;4.45;;;1.25;;
3465;SDS011;1747;48.884;9.160;2023-07-31T00:36:15;4.57;;;1.45;;
3465;SDS011;1747;48.884;9.160;2023-07-31T00:38:43;4.97;;;1.70;;
3465;SDS011;1747;48.884;9.160;2023-07-31T00:41:09;4.63;;;1.73;;
3465;SDS011;1747;48.884;9.160;2023-07-31T00:43:36;1.90;;;1.33;;
3465;SDS011;1747;48.884;9.160;2023-07-31T00:46:05;2.65;;;1.38;;
3465;SDS011;1747;48.884;9.160;2023-07-31T00:48:32;3.13;;;1.30;;
3465;SDS011;1747;48.884;9.160;2023-07-31T00:51:01;4.88;;;1.58;;
3465;SDS011;1747;48.884;9.160;2023-07-31T00:53:28;3.85;;;1.70;;
3465;SDS011;1747;48.884;9.160;2023-07-31T00:55:54;3.80;;;1.65;;
3465;SDS011;1747;48.884;9.160;2023-07-31T00:58:22;2.22;;;1.15;;
3465;SDS011;1747;48.884;9.160;2023-07-31T01:00:49;2.72;;;1.20;;
3465;SDS011;1747;48.884;9.160;2023-07-31T01:03:17;4.70;;;1.80;;
3465;SDS011;1747;48.884;9.160;2023-07-31T01:05:48;2.30;;;1.35;;
3465;SDS011;1747;48.884;9.160;2023-07-31T01:08:24;3.95;;;1.98;;
3465;SDS011;1747;48.884;9.160;2023-07-31T01:10:57;3.47;;;1.50;;
3465;SDS011;1747;48.884;9.160;2023-07-31T01:13:28;2.42;;;1.38;;
3465;SDS011;1747;48.884;9.160;2023-07-31T01:15:54;2.17;;;1.20;;
3465;SDS011;1747;48.884;9.160;2023-07-31T01:18:23;3.72;;;1.50;;
3465;SDS011;1747;48.884;9.160;2023-07-31T01:20:57;2.70;;;1.27;;
3465;SDS011;1747;48.884;9.160;2023-07-31T01:23:35;3.95;;;1.45;;
3465;SDS011;1747;48.884;9.160;2023-07-31T01:26:27;3.65;;;1.13;;
3465;SDS011;1747;48.884;9.160;2023-07-31T01:29:01;2.70;;;1.42;;
3465;SDS011;1747;48.884;9.160;2023-07-31T01:31:32;2.83;;;1.52;;
3465;SDS011;1747;48.884;9.160;2023-07-31T01:34:01;2.60;;;1.42;;
3465;SDS011;1747;48.884;9.160;2023-07-31T01:36:28;2.97;;;1.50;;
3465;SDS011;1747;48.884;9.160;2023-07-31T01:38:57;2.72;;;1.60;;
3465;SDS011;1747;48.884;9.160;2023-07-31T01:41:26;6.50;;;2.10;;
3465;SDS011;1747;48.884;9.160;2023-07-31T01:43:53;2.30;;;1.40;;
3465;SDS011;1747;48.884;9.160;2023-07-31T01:46:20;3.33;;;1.40;;
3465;SDS011;1747;48.884;9.160;2023-07-31T01:48:47;2.65;;;1.30;;
3465;SDS011;1747;48.884;9.160;2023-07-31T01:51:14;2.97;;;1.30;;
3465;SDS011;1747;48.884;9.160;2023-07-31T01:53:40;3.80;;;1.35;;
3465;SDS011;1747;48.884;9.160;2023-07-31T01:56:07;5.32;;;1.60;;
3465;SDS011;1747;48.884;9.160;2023-07-31T01:58:36;3.85;;;1.40;;
3465;SDS011;1747;48.884;9.160;2023-07-31T02:01:02;6.10;;;1.70;;
3465;SDS011;1747;48.884;9.160;2023-07-31T02:03:29;3.65;;;1.70;;
3465;SDS011;1747;48.884;9.160;2023-07-31T02:05:56;3.25;;;1.63;;
3465;SDS011;1747;48.884;9.160;2023-07-31T02:08:23;2.20;;;1.40;;
3465;SDS011;1747;48.884;9.160;2023-07-31T02:10:51;2.38;;;1.42;;
3465;SDS011;1747;48.884;9.160;2023-07-31T02:13:18;2.85;;;1.42;;
3465;SDS011;1747;48.884;9.160;2023-07-31T02:15:46;2.05;;;1.35;;
3465;SDS011;1747;48.884;9.160;2023-07-31T02:18:14;2.90;;;1.48;;
3465;SDS011;1747;48.884;9.160;2023-07-31T02:20:41;4.57;;;1.35;;
3465;SDS011;1747;48.884;9.160;2023-07-31T02:23:07;3.30;;;1.50;;
3465;SDS011;1747;48.884;9.160;2023-07-31T02:25:34;4.60;;;1.65;;
3465;SDS011;1747;48.884;9.160;2023-07-31T02:28:01;3.88;;;1.50;;
3465;SDS011;1747;48.884;9.160;2023-07-31T02:30:28;1.95;;;1.38;;
3465;SDS011;1747;48.884;9.160;2023-07-31T02:32:56;2.78;;;1.48;;
3465;SDS011;1747;48.884;9.160;2023-07-31T02:35:23;2.75;;;1.33;;
3465;SDS011;1747;48.884;9.160;2023-07-31T02:37:50;6.97;;;1.90;;
3465;SDS011;1747;48.884;9.160;2023-07-31T02:40:17;6.25;;;1.63;;
3465;SDS011;1747;48.884;9.160;2023-07-31T02:42:43;4.57;;;1.40;;
3465;SDS011;1747;48.884;9.160;2023-07-31T02:45:10;2.50;;;1.30;;
3465;SDS011;1747;48.884;9.160;2023-07-31T02:47:37;1.90;;;1.25;;
3465;SDS011;1747;48.884;9.160;2023-07-31T02:50:06;2.67;;;1.35;;
3465;SDS011;1747;48.884;9.160;2023-07-31T02:52:33;3.15;;;1.67;;
3465;SDS011;1747;48.884;9.160;2023-07-31T02:55:00;7.20;;;1.45;;
3465;SDS011;1747;48.884;9.160;2023-07-31T02:57:26;5.93;;;1.50;;
3465;SDS011;1747;48.884;9.160;2023-07-31T02:59:53;4.32;;;1.45;;
3465;SDS011;1747;48.884;9.160;2023-07-31T03:02:20;4.57;;;1.70;;
3465;SDS011;1747;48.884;9.160;2023-07-31T03:04:47;3.70;;;1.50;;
3465;SDS011;1747;48.884;9.160;2023-07-31T03:07:15;3.55;;;1.52;;
3465;SDS011;1747;48.884;9.160;2023-07-31T03:09:42;5.10;;;1.65;;
3465;SDS011;1747;48.884;9.160;2023-07-31T03:12:09;4.38;;;1.55;;
3465;SDS011;1747;48.884;9.160;2023-07-31T03:14:36;3.05;;;1.40;;
3465;SDS011;1747;48.884;9.160;2023-07-31T03:17:03;3.42;;;1.40;;
3465;SDS011;1747;48.884;9.160;2023-07-31T03:19:30;3.92;;;1.70;;
3465;SDS011;1747;48.884;9.160;2023-07-31T03:21:57;7.35;;;1.90;;
3465;SDS011;1747;48.884;9.160;2023-07-31T03:24:26;3.08;;;1.30;;
3465;SDS011;1747;48.884;9.160;2023-07-31T03:26:54;5.90;;;1.52;;
3465;SDS011;1747;48.884;9.160;2023-07-31T03:29:21;1.95;;;1.70;;
3465;SDS011;1747;48.884;9.160;2023-07-31T03:31:48;2.97;;;0.93;;
3465;SDS011;1747;48.884;9.160;2023-07-31T03:34:14;3.28;;;1.30;;
3465;SDS011;1747;48.884;9.160;2023-07-31T03:36:41;5.90;;;1.40;;
3465;SDS011;1747;48.884;9.160;2023-07-31T03:39:09;4.30;;;1.65;;
3465;SDS011;1747;48.884;9.160;2023-07-31T03:41:37;3.90;;;1.52;;
3465;SDS011;1747;48.884;9.160;2023-07-31T03:44:04;4.32;;;1.83;;
3465;SDS011;1747;48.884;9.160;2023-07-31T03:46:31;3.05;;;1.70;;
3465;SDS011;1747;48.884;9.160;2023-07-31T03:48:58;3.55;;;1.40;;
3465;SDS011;1747;48.884;9.160;2023-07-31T03:51:25;2.70;;;1.38;;
3465;SDS011;1747;48.884;9.160;2023-07-31T03:53:52;3.72;;;1.80;;
3465;SDS011;1747;48.884;9.160;2023-07-31T03:56:19;2.83;;;1.35;;
3465;SDS011;1747;48.884;9.160;2023-07-31T03:58:47;1.67;;;1.20;;
3465;SDS011;1747;48.884;9.160;2023-07-31T04:01:14;4.60;;;1.98;;
3465;SDS011;1747;48.884;9.160;2023-07-31T04:03:41;4.78;;;1.42;;
3465;SDS011;1747;48.884;9.160;2023-07-31T04:06:08;2.33;;;1.40;;
3465;SDS011;1747;48.884;9.160;2023-07-31T04:08:35;5.15;;;1.27;;
3465;SDS011;1747;48.884;9.160;2023-07-31T04:11:02;2.83;;;1.27;;
3465;SDS011;1747;48.884;9.160;2023-07-31T04:13:29;5.60;;;1.63;;
3465;SDS011;1747;48.884;9.160;2023-07-31T04:15:57;5.03;;;1.90;;
3465;SDS011;1747;48.884;9.160;2023-07-31T04:18:24;3.95;;;1.55;;
3465;SDS011;1747;48.884;9.160;2023-07-31T04:20:51;4.93;;;1.25;;
3465;SDS011;1747;48.884;9.160;2023-07-31T04:23:18;3.08;;;1.42;;
3465;SDS011;1747;48.884;9.160;2023-07-31T04:25:45;5.50;;;1.88;;
3465;SDS011;1747;48.884;9.160;2023-07-31T04:28:12;2.97;;;1.45;;
3465;SDS011;1747;48.884;9.160;2023-07-31T04:30:38;2.30;;;1.35;;
3465;SDS011;1747;48.884;9.160;2023-07-31T04:33:07;3.00;;;1.40;;
3465;SDS011;1747;48.884;9.160;2023-07-31T04:35:34;5.50;;;1.65;;
3465;SDS011;1747;48.884;9.160;2023-07-31T04:38:01;3.38;;;1.50;;
3465;SDS011;1747;48.884;9.160;2023-07-31T04:40:27;2.88;;;1.50;;
3465;SDS011;1747;48.884;9.160;2023-07-31T04:42:54;4.65;;;1.58;;
3465;SDS011;1747;48.884;9.160;2023-07-31T04:45:21;3.40;;;1.65;;
3465;SDS011;1747;48.884;9.160;2023-07-31T04:47:48;3.88;;;1.60;;
3465;SDS011;1747;48.884;9.160;2023-07-31T04:50:16;2.75;;;1.40;;
3465;SDS011;1747;48.884;9.160;2023-07-31T04:52:43;3.92;;;1.33;;
3465;SDS011;1747;48.884;9.160;2023-07-31T04:55:10;2.58;;;1.67;;
3465;SDS011;1747;48.884;9.160;2023-07-31T04:57:36;8.88;;;1.50;;
3465;SDS011;1747;48.884;9.160;2023-07-31T05:00:03;3.85;;;1.65;;
3465;SDS011;1747;48.884;9.160;2023-07-31T05:02:31;2.53;;;1.30;;
3465;SDS011;1747;48.884;9.160;2023-07-31T05:04:58;5.72;;;1.60;;
3465;SDS011;1747;48.884;9.160;2023-07-31T05:07:26;6.28;;;1.50;;
3465;SDS011;1747;48.884;9.160;2023-07-31T05:09:53;2.17;;;1.40;;
3465;SDS011;1747;48.884;9.160;2023-07-31T05:12:20;7.47;;;1.85;;
3465;SDS011;1747;48.884;9.160;2023-07-31T05:14:46;5.65;;;1.83;;
3465;SDS011;1747;48.884;9.160;2023-07-31T05:17:13;4.15;;;1.55;;
3465;SDS011;1747;48.884;9.160;2023-07-31T05:19:40;3.90;;;1.83;;
3465;SDS011;1747;48.884;9.160;2023-07-31T05:22:07;3.10;;;1.77;;
3465;SDS011;1747;48.884;9.160;2023-07-31T05:24:35;2.97;;;1.45;;
3465;SDS011;1747;48.884;9.160;2023-07-31T05:27:02;3.25;;;1.55;;
3465;SDS011;1747;48.884;9.160;2023-07-31T05:29:29;5.68;;;1.52;;
3465;SDS011;1747;48.884;9.160;2023-07-31T05:31:56;2.50;;;1.42;;
3465;SDS011;1747;48.884;9.160;2023-07-31T05:34:23;2.80;;;1.50;;
3465;SDS011;1747;48.884;9.160;2023-07-31T05:36:50;4.63;;;1.90;;
3465;SDS011;1747;48.884;9.160;2023-07-31T05:39:16;7.20;;;1.60;;
3465;SDS011;1747;48.884;9.160;2023-07-31T05:41:46;4.45;;;1.70;;
3465;SDS011;1747;48.884;9.160;2023-07-31T05:44:13;6.25;;;1.55;;
3465;SDS011;1747;48.884;9.160;2023-07-31T05:46:40;3.75;;;1.75;;
3465;SDS011;1747;48.884;9.160;2023-07-31T05:49:06;3.80;;;1.50;;
3465;SDS011;1747;48.884;9.160;2023-07-31T05:51:33;3.88;;;1.70;;
3465;SDS011;1747;48.884;9.160;2023-07-31T05:54:00;5.20;;;1.38;;
3465;SDS011;1747;48.884;9.160;2023-07-31T05:56:27;3.40;;;1.50;;
3465;SDS011;1747;48.884;9.160;2023-07-31T05:58:55;11.00;;;1.58;;
3465;SDS011;1747;48.884;9.160;2023-07-31T06:01:22;3.55;;;1.52;;
3465;SDS011;1747;48.884;9.160;2023-07-31T06:03:49;3.60;;;1.63;;
3465;SDS011;1747;48.884;9.160;2023-07-31T06:06:16;4.68;;;1.88;;
3465;SDS011;1747;48.884;9.160;2023-07-31T06:08:43;5.97;;;1.88;;
3465;SDS011;1747;48.884;9.160;2023-07-31T06:11:10;4.20;;;1.60;;
3465;SDS011;1747;48.884;9.160;2023-07-31T06:13:37;3.25;;;1.83;;
3465;SDS011;1747;48.884;9.160;2023-07-31T06:16:05;2.55;;;1.38;;
3465;SDS011;1747;48.884;9.160;2023-07-31T06:18:32;2.80;;;1.58;;
3465;SDS011;1747;48.884;9.160;2023-07-31T06:20:59;6.00;;;1.70;;
3465;SDS011;1747;48.884;9.160;2023-07-31T06:23:26;3.65;;;1.48;;
3465;SDS011;1747;48.884;9.160;2023-07-31T06:25:52;3.80;;;1.58;;
3465;SDS011;1747;48.884;9.160;2023-07-31T06:28:19;3.42;;;1.85;;
3465;SDS011;1747;48.884;9.160;2023-07-31T06:30:46;5.25;;;1.50;;
3465;SDS011;1747;48.884;9.160;2023-07-31T06:33:14;2.20;;;1.33;;
3465;SDS011;1747;48.884;9.160;2023-07-31T06:35:41;4.13;;;1.80;;
3465;SDS011;1747;48.884;9.160;2023-07-31T06:38:08;2.58;;;1.48;;
3465;SDS011;1747;48.884;9.160;2023-07-31T06:40:35;3.80;;;1.83;;
3465;SDS011;1747;48.884;9.160;2023-07-31T06:43:02;7.18;;;1.45;;
3465;SDS011;1747;48.884;9.160;2023-07-31T06:45:33;5.60;;;2.20;;
3465;SDS011;1747;48.884;9.160;2023-07-31T06:48:00;5.93;;;1.90;;
3465;SDS011;1747;48.884;9.160;2023-07-31T06:50:29;5.43;;;1.95;;
3465;SDS011;1747;48.884;9.160;2023-07-31T06:52:55;4.55;;;1.65;;
3465;SDS011;1747;48.884;9.160;2023-07-31T06:55:22;3.92;;;1.80;;
3465;SDS011;1747;48.884;9.160;2023-07-31T08:14:06;4.68;;;2.13;;
3465;SDS011;1747;48.884;9.160;2023-07-31T08:16:33;5.38;;;1.83;;
3465;SDS011;1747;48.884;9.160;2023-07-31T08:19:00;5.85;;;1.73;;
3465;SDS011;1747;48.884;9.160;2023-07-31T08:21:27;3.33;;;1.80;;
3465;SDS011;1747;48.884;9.160;2023-07-31T08:23:57;3.80;;;1.85;;
3465;SDS011;1747;48.884;9.160;2023-07-31T08:26:24;6.50;;;1.60;;
3465;SDS011;1747;48.884;9.160;2023-07-31T08:28:51;5.75;;;2.13;;
3465;SDS011;1747;48.884;9.160;2023-07-31T08:31:19;4.22;;;2.10;;
3465;SDS011;1747;48.884;9.160;2023-07-31T08:33:46;5.60;;;2.20;;
3465;SDS011;1747;48.884;9.160;2023-07-31T08:36:12;6.25;;;2.05;;
3465;SDS011;1747;48.884;9.160;2023-07-31T08:38:39;3.00;;;1.80;;
3465;SDS011;1747;48.884;9.160;2023-07-31T08:41:06;4.10;;;2.25;;
3465;SDS011;1747;48.884;9.160;2023-07-31T08:43:33;8.10;;;1.85;;
3465;SDS011;1747;48.884;9.160;2023-07-31T08:46:02;3.70;;;1.63;;
3465;SDS011;1747;48.884;9.160;2023-07-31T08:48:30;4.05;;;1.67;;
3465;SDS011;1747;48.884;9.160;2023-07-31T08:50:58;5.10;;;1.90;;
3465;SDS011;1747;48.884;9.160;2023-07-31T08:53:25;6.82;;;1.77;;
3465;SDS011;1747;48.884;9.160;2023-07-31T08:55:52;5.00;;;2.05;;
3465;SDS011;1747;48.884;9.160;2023-07-31T08:58:19;7.28;;;1.92;;
3465;SDS011;1747;48.884;9.160;2023-07-31T09:00:47;5.45;;;1.88;;
3465;SDS011;1747;48.884;9.160;2023-07-31T09:03:14;4.53;;;1.90;;
3465;SDS011;1747;48.884;9.160;2023-07-31T09:05:45;5.90;;;2.38;;
3465;SDS011;1747;48.884;9.160;2023-07-31T09:08:13;3.33;;;2.00;;
3465;SDS011;1747;48.884;9.160;2023-07-31T09:10:47;5.40;;;1.75;;
3465;SDS011;1747;48.884;9.160;2023-07-31T09:13:15;6.05;;;2.10;;
3465;SDS011;1747;48.884;9.160;2023-07-31T09:15:42;4.18;;;1.73;;
3465;SDS011;1747;48.884;9.160;2023-07-31T09:18:11;4.75;;;1.70;;
3465;SDS011;1747;48.884;9.160;2023-07-31T09:20:39;4.82;;;2.05;;
3465;SDS011;1747;48.884;9.160;2023-07-31T09:23:08;6.05;;;2.00;;
3465;SDS011;1747;48.884;9.160;2023-07-31T09:25:36;4.97;;;1.92;;
3465;SDS011;1747;48.884;9.160;2023-07-31T09:28:04;3.28;;;2.00;;
3465;SDS011;1747;48.884;9.160;2023-07-31T09:30:43;3.00;;;2.13;;
3465;SDS011;1747;48.884;9.160;2023-07-31T09:33:12;3.70;;;2.25;;
3465;SDS011;1747;48.884;9.160;2023-07-31T09:35:38;5.18;;;1.88;;
3465;SDS011;1747;48.884;9.160;2023-07-31T09:38:09;4.40;;;2.03;;
3465;SDS011;1747;48.884;9.160;2023-07-31T09:40:37;8.05;;;2.75;;
3465;SDS011;1747;48.884;9.160;2023-07-31T09:43:05;5.20;;;1.90;;
3465;SDS011;1747;48.884;9.160;2023-07-31T09:45:36;3.33;;;2.10;;
3465;SDS011;1747;48.884;9.160;2023-07-31T09:48:06;4.38;;;1.95;;
3465;SDS011;1747;48.884;9.160;2023-07-31T09:50:34;5.55;;;2.13;;
3465;SDS011;1747;48.884;9.160;2023-07-31T09:53:03;4.80;;;1.92;;
3465;SDS011;1747;48.884;9.160;2023-07-31T09:55:31;4.88;;;1.85;;
3465;SDS011;1747;48.884;9.160;2023-07-31T09:57:58;5.35;;;2.10;;
3465;SDS011;1747;48.884;9.160;2023-07-31T10:00:29;7.10;;;2.10;;
3465;SDS011;1747;48.884;9.160;2023-07-31T10:02:57;5.22;;;1.98;;
3465;SDS011;1747;48.884;9.160;2023-07-31T10:05:25;5.00;;;2.25;;
3465;SDS011;1747;48.884;9.160;2023-07-31T10:07:57;4.22;;;2.30;;
3465;SDS011;1747;48.884;9.160;2023-07-31T10:10:24;5.30;;;2.08;;
3465;SDS011;1747;48.884;9.160;2023-07-31T10:12:54;4.57;;;2.15;;
3465;SDS011;1747;48.884;9.160;2023-07-31T10:15:22;5.35;;;2.00;;
3465;SDS011;1747;48.884;9.160;2023-07-31T10:17:50;7.68;;;2.00;;
3465;SDS011;1747;48.884;9.160;2023-07-31T10:20:17;7.30;;;2.60;;
3465;SDS011;1747;48.884;9.160;2023-07-31T10:22:44;4.55;;;2.20;;
3465;SDS011;1747;48.884;9.160;2023-07-31T10:25:12;6.32;;;2.30;;
3465;SDS011;1747;48.884;9.160;2023-07-31T10:27:39;4.63;;;1.77;;
3465;SDS011;1747;48.884;9.160;2023-07-31T10:30:09;4.22;;;2.20;;
3465;SDS011;1747;48.884;9.160;2023-07-31T10:32:38;7.97;;;2.10;;
3465;SDS011;1747;48.884;9.160;2023-07-31T10:35:08;3.80;;;2.00;;
3465;SDS011;1747;48.884;9.160;2023-07-31T10:37:36;5.38;;;2.10;;
3465;SDS011;1747;48.884;9.160;2023-07-31T10:40:04;4.25;;;2.20;;
3465;SDS011;1747;48.884;9.160;2023-07-31T10:42:33;3.58;;;1.90;;
3465;SDS011;1747;48.884;9.160;2023-07-31T10:45:03;3.83;;;1.95;;
3465;SDS011;1747;48.884;9.160;2023-07-31T10:47:37;5.28;;;2.20;;
3465;SDS011;1747;48.884;9.160;2023-07-31T10:50:11;4.63;;;2.20;;
3465;SDS011;1747;48.884;9.160;2023-07-31T10:52:40;4.70;;;2.20;;
3465;SDS011;1747;48.884;9.160;2023-07-31T10:55:13;5.60;;;2.13;;
3465;SDS011;1747;48.884;9.160;2023-07-31T10:57:44;5.00;;;2.58;;
3465;SDS011;1747;48.884;9.160;2023-07-31T11:00:18;4.18;;;2.35;;
3465;SDS011;1747;48.884;9.160;2023-07-31T11:03:01;5.05;;;2.03;;
3465;SDS011;1747;48.884;9.160;2023-07-31T11:05:49;4.45;;;2.00;;
3465;SDS011;1747;48.884;9.160;2023-07-31T11:08:19;5.10;;;2.33;;
3465;SDS011;1747;48.884;9.160;2023-07-31T11:10:48;8.00;;;2.25;;
3465;SDS011;1747;48.884;9.160;2023-07-31T11:13:17;6.53;;;2.20;;
3465;SDS011;1747;48.884;9.160;2023-07-31T11:15:44;5.10;;;2.40;;
3465;SDS011;1747;48.884;9.160;2023-07-31T11:18:13;3.80;;;2.45;;
3465;SDS011;1747;48.884;9.160;2023-07-31T11:20:40;4.47;;;2.25;;
3465;SDS011;1747;48.884;9.160;2023-07-31T11:23:08;3.63;;;2.05;;
3465;SDS011;1747;48.884;9.160;2023-07-31T11:25:36;4.53;;;2.63;;
3465;SDS011;1747;48.884;9.160;2023-07-31T11:28:04;5.78;;;1.98;;
3465;SDS011;1747;48.884;9.160;2023-07-31T11:30:31;7.30;;;2.33;;
3465;SDS011;1747;48.884;9.160;2023-07-31T11:32:59;5.13;;;2.40;;
3465;SDS011;1747;48.884;9.160;2023-07-31T11:35:29;6.25;;;2.45;;
3465;SDS011;1747;48.884;9.160;2023-07-31T11:37:57;4.80;;;2.10;;
3465;SDS011;1747;48.884;9.160;2023-07-31T11:40:24;4.93;;;2.00;;
3465;SDS011;1747;48.884;9.160;2023-07-31T11:42:54;6.60;;;2.47;;
3465;SDS011;1747;48.884;9.160;2023-07-31T11:45:24;5.32;;;2.55;;
3465;SDS011;1747;48.884;9.160;2023-07-31T11:47:51;7.43;;;2.40;;
3465;SDS011;1747;48.884;9.160;2023-07-31T11:50:19;5.43;;;2.58;;
3465;SDS011;1747;48.884;9.160;2023-07-31T11:52:48;3.58;;;2.10;;
3465;SDS011;1747;48.884;9.160;2023-07-31T11:55:18;6.47;;;2.50;;
3465;SDS011;1747;48.884;9.160;2023-07-31T11:57:45;5.45;;;2.50;;
3465;SDS011;1747;48.884;9.160;2023-07-31T12:00:14;3.45;;;2.38;;
3465;SDS011;1747;48.884;9.160;2023-07-31T12:02:42;6.18;;;2.65;;
3465;SDS011;1747;48.884;9.160;2023-07-31T12:05:10;4.45;;;2.50;;
3465;SDS011;1747;48.884;9.160;2023-07-31T12:07:45;6.35;;;2.85;;
3465;SDS011;1747;48.884;9.160;2023-07-31T12:10:28;4.22;;;2.47;;
3465;SDS011;1747;48.884;9.160;2023-07-31T12:12:56;4.57;;;2.63;;
3465;SDS011;1747;48.884;9.160;2023-07-31T12:15:34;4.78;;;2.30;;
3465;SDS011;1747;48.884;9.160;2023-07-31T12:18:06;4.20;;;2.50;;
3465;SDS011;1747;48.884;9.160;2023-07-31T12:20:34;7.43;;;2.35;;
3465;SDS011;1747;48.884;9.160;2023-07-31T12:23:03;6.80;;;2.40;;
3465;SDS011;1747;48.884;9.160;2023-07-31T12:25:32;5.18;;;2.60;;
3465;SDS011;1747;48.884;9.160;2023-07-31T12:28:04;5.20;;;2.40;;
3465;SDS011;1747;48.884;9.160;2023-07-31T12:30:36;5.55;;;2.50;;
3465;SDS011;1747;48.884;9.160;2023-07-31T12:33:04;5.22;;;2.33;;
3465;SDS011;1747;48.884;9.160;2023-07-31T12:35:36;7.43;;;2.58;;
3465;SDS011;1747;48.884;9.160;2023-07-31T12:38:05;4.50;;;2.70;;
3465;SDS011;1747;48.884;9.160;2023-07-31T12:40:32;5.13;;;2.58;;
3465;SDS011;1747;48.884;9.160;2023-07-31T12:43:00;5.40;;;2.40;;
3465;SDS011;1747;48.884;9.160;2023-07-31T12:45:28;8.18;;;2.88;;
3465;SDS011;1747;48.884;9.160;2023-07-31T12:47:56;6.82;;;2.85;;
3465;SDS011;1747;48.884;9.160;2023-07-31T12:50:23;6.10;;;2.60;;
3465;SDS011;1747;48.884;9.160;2023-07-31T12:52:50;4.57;;;2.60;;
3465;SDS011;1747;48.884;9.160;2023-07-31T12:55:19;4.80;;;2.42;;
3465;SDS011;1747;48.884;9.160;2023-07-31T12:57:46;5.03;;;2.25;;
3465;SDS011;1747;48.884;9.160;2023-07-31T13:00:13;6.68;;;2.42;;
3465;SDS011;1747;48.884;9.160;2023-07-31T13:02:40;3.30;;;2.10;;
3465;SDS011;1747;48.884;9.160;2023-07-31T13:05:07;6.28;;;2.50;;
3465;SDS011;1747;48.884;9.160;2023-07-31T13:07:34;5.88;;;3.00;;
3465;SDS011;1747;48.884;9.160;2023-07-31T13:10:01;5.45;;;2.53;;
3465;SDS011;1747;48.884;9.160;2023-07-31T13:12:30;4.93;;;2.40;;
3465;SDS011;1747;48.884;9.160;2023-07-31T13:14:57;6.18;;;2.38;;
3465;SDS011;1747;48.884;9.160;2023-07-31T13:17:23;4.13;;;2.80;;
3465;SDS011;1747;48.884;9.160;2023-07-31T13:19:51;4.57;;;2.10;;
3465;SDS011;1747;48.884;9.160;2023-07-31T13:22:18;5.97;;;2.17;;
3465;SDS011;1747;48.884;9.160;2023-07-31T13:24:45;4.95;;;2.25;;
3465;SDS011;1747;48.884;9.160;2023-07-31T13:27:11;11.43;;;2.40;;
3465;SDS011;1747;48.884;9.160;2023-07-31T13:29:40;5.10;;;2.33;;
3465;SDS011;1747;48.884;9.160;2023-07-31T13:32:07;5.07;;;2.50;;
3465;SDS011;1747;48.884;9.160;2023-07-31T13:34:34;6.35;;;2.67;;
3465;SDS011;1747;48.884;9.160;2023-07-31T13:37:00;7.38;;;2.45;;
3465;SDS011;1747;48.884;9.160;2023-07-31T13:39:27;5.53;;;2.30;;
3465;SDS011;1747;48.884;9.160;2023-07-31T13:41:54;2.75;;;2.00;;
3465;SDS011;1747;48.884;9.160;2023-07-31T13:44:21;3.25;;;2.50;;
3465;SDS011;1747;48.884;9.160;2023-07-31T13:46:49;5.47;;;2.22;;
3465;SDS011;1747;48.884;9.160;2023-07-31T13:49:16;4.25;;;2.20;;
3465;SDS011;1747;48.884;9.160;2023-07-31T13:51:43;6.00;;;2.65;;
3465;SDS011;1747;48.884;9.160;2023-07-31T13:54:11;3.65;;;1.95;;
3465;SDS011;1747;48.884;9.160;2023-07-31T13:56:39;8.77;;;2.90;;
3465;SDS011;1747;48.884;9.160;2023-07-31T13:59:06;9.27;;;2.85;;
3465;SDS011;1747;48.884;9.160;2023-07-31T14:01:33;7.57;;;2.40;;
3465;SDS011;1747;48.884;9.160;2023-07-31T14:04:01;3.80;;;2.53;;
3465;SDS011;1747;48.884;9.160;2023-07-31T14:06:28;8.25;;;2.28;;
3465;SDS011;1747;48.884;9.160;2023-07-31T14:08:55;2.42;;;1.98;;
3465;SDS011;1747;48.884;9.160;2023-07-31T14:11:22;3.90;;;2.42;;
3465;SDS011;1747;48.884;9.160;2023-07-31T14:13:49;7.03;;;2.88;;
3465;SDS011;1747;48.884;9.160;2023-07-31T14:16:17;5.05;;;2.33;;
3465;SDS011;1747;48.884;9.160;2023-07-31T14:18:44;5.55;;;2.35;;
3465;SDS011;1747;48.884;9.160;2023-07-31T14:21:13;3.25;;;2.03;;
3465;SDS011;1747;48.884;9.160;2023-07-31T14:23:40;4.80;;;2.10;;
3465;SDS011;1747;48.884;9.160;2023-07-31T14:26:07;4.93;;;2.30;;
3465;SDS011;1747;48.884;9.160;2023-07-31T14:28:34;4.45;;;2.42;;
3465;SDS011;1747;48.884;9.160;2023-07-31T14:31:01;3.65;;;2.15;;
3465;SDS011;1747;48.884;9.160;2023-07-31T14:33:28;7.55;;;2.20;;
3465;SDS011;1747;48.884;9.160;2023-07-31T14:35:55;8.40;;;2.40;;
3465;SDS011;1747;48.884;9.160;2023-07-31T14:38:23;6.63;;;2.67;;
3465;SDS011;1747;48.884;9.160;2023-07-31T14:40:50;11.32;;;2.30;;
3465;SDS011;1747;48.884;9.160;2023-07-31T14:43:17;4.68;;;2.67;;
3465;SDS011;1747;48.884;9.160;2023-07-31T14:45:44;6.28;;;2.50;;
3465;SDS011;1747;48.884;9.160;2023-07-31T14:48:11;4.18;;;2.42;;
3465;SDS011;1747;48.884;9.160;2023-07-31T14:50:39;6.13;;;2.78;;
3465;SDS011;1747;48.884;9.160;2023-07-31T14:53:06;5.80;;;2.55;;
3465;SDS011;1747;48.884;9.160;2023-07-31T14:55:34;4.43;;;2.45;;
3465;SDS011;1747;48.884;9.160;2023-07-31T14:58:00;8.40;;;3.35;;
3465;SDS011;1747;48.884;9.160;2023-07-31T15:00:28;6.95;;;2.70;;
3465;SDS011;1747;48.884;9.160;2023-07-31T15:02:54;4.28;;;2.47;;
3465;SDS011;1747;48.884;9.160;2023-07-31T15:05:21;5.18;;;2.40;;
3465;SDS011;1747;48.884;9.160;2023-07-31T15:07:48;5.82;;;2.70;;
3465;SDS011;1747;48.884;9.160;2023-07-31T15:10:15;6.78;;;2.33;;
3465;SDS011;1747;48.884;9.160;2023-07-31T15:12:43;5.25;;;2.40;;
3465;SDS011;1747;48.884;9.160;2023-07-31T15:15:10;7.68;;;2.50;;
3465;SDS011;1747;48.884;9.160;2023-07-31T15:17:37;4.03;;;2.40;;
3465;SDS011;1747;48.884;9.160;2023-07-31T15:20:04;9.52;;;4.35;;
3465;SDS011;1747;48.884;9.160;2023-07-31T15:22:32;7.53;;;3.67;;
3465;SDS011;1747;48.884;9.160;2023-07-31T15:24:58;6.57;;;3.45;;
3465;SDS011;1747;48.884;9.160;2023-07-31T15:27:25;6.50;;;3.15;;
3465;SDS011;1747;48.884;9.160;2023-07-31T15:29:53;4.75;;;2.90;;
3465;SDS011;1747;48.884;9.160;2023-07-31T15:32:20;8.52;;;2.83;;
3465;SDS011;1747;48.884;9.160;2023-07-31T15:34:48;4.45;;;2.50;;
3465;SDS011;1747;48.884;9.160;2023-07-31T15:37:15;5.18;;;2.40;;
3465;SDS011;1747;48.884;9.160;2023-07-31T15:39:42;4.05;;;2.20;;
3465;SDS011;1747;48.884;9.160;2023-07-31T15:42:09;2.53;;;2.00;;
3465;SDS011;1747;48.884;9.160;2023-07-31T15:44:36;4.53;;;2.28;;
3465;SDS011;1747;48.884;9.160;2023-07-31T15:47:05;3.63;;;1.98;;
3465;SDS011;1747;48.884;9.160;2023-07-31T15:49:32;3.88;;;2.58;;
3465;SDS011;1747;48.884;9.160;2023-07-31T15:51:59;3.03;;;2.30;;
3465;SDS011;1747;48.884;9.160;2023-07-31T15:54:26;4.32;;;2.25;;
3465;SDS011;1747;48.884;9.160;2023-07-31T15:56:52;3.40;;;2.15;;
3465;SDS011;1747;48.884;9.160;2023-07-31T15:59:19;3.00;;;2.22;;
3465;SDS011;1747;48.884;9.160;2023-07-31T16:01:46;4.70;;;2.20;;
3465;SDS011;1747;48.884;9.160;2023-07-31T16:04:14;3.00;;;2.05;;
3465;SDS011;1747;48.884;9.160;2023-07-31T16:06:41;4.50;;;2.15;;
3465;SDS011;1747;48.884;9.160;2023-07-31T16:09:08;3.33;;;1.92;;
3465;SDS011;1747;48.884;9.160;2023-07-31T16:11:35;5.32;;;2.25;;
3465;SDS011;1747;48.884;9.160;2023-07-31T16:14:01;5.65;;;2.47;;
3465;SDS011;1747;48.884;9.160;2023-07-31T16:16:28;7.85;;;2.20;;
3465;SDS011;1747;48.884;9.160;2023-07-31T16:18:55;3.22;;;1.95;;
3465;SDS011;1747;48.884;9.160;2023-07-31T16:21:23;5.70;;;2.28;;
3465;SDS011;1747;48.884;9.160;2023-07-31T16:23:51;5.97;;;2.53;;
3465;SDS011;1747;48.884;9.160;2023-07-31T16:26:18;6.28;;;2.13;;
3465;SDS011;1747;48.884;9.160;2023-07-31T16:28:44;6.55;;;2.60;;
3465;SDS011;1747;48.884;9.160;2023-07-31T16:31:11;3.85;;;2.58;;
3465;SDS011;1747;48.884;9.160;2023-07-31T16:33:38;4.88;;;2.70;;
3465;SDS011;1747;48.884;9.160;2023-07-31T16:36:05;5.53;;;2.85;;